Airfield :
LOGIN :

Register | Disclaimer

   EN    FR    IT 

 










Legend :    VFR   Marginal VFR   IFR   Intensive IFR   Very Intensive IFR
Visi :
Ceiling :
>= 8 km
>= 3000ft
5 to 8 km
1000 to 3000 ft
1500m to 5 km
500 to 1000 ft
800 to 1500m
200 to 500 ft
< 800m
< 200 ft
Symbols :   Thunderstorms  Fog  Heavy snow  Heavy precipitations  Wind > 20 kt
SIGMETs :     Misc.  Thunderstorms  Icing  Turbulence  Mountain Waves  Volcanic Ashes







- Airport Elevation : 174 ft
- IATA code : RYG


ENRY - Moss , Rygge

CURRENT METAR :
  • 191720Z 35007KT 9999 BKN022 00/M04 Q1039

EXPIRED METARs :
  • 191650Z 36007KT 9999 BKN022 00/M03 Q1039
  • 191620Z 36007KT 330V030 9999 BKN022 00/M04 Q1039
  • 191520Z 36007KT 9999 BKN022 01/M03 Q1039
  • 191450Z 36002KT 9999 OVC022 01/M03 Q1039

TAF TAF ENRY
Valid from the 19 at 12:00 until the 20 at 12:00 UTC


1912/2012 03008KT 9999 BKN018
No reported NOTAMs for that airfield.
1 SIGMET reported for the Norway FIR (ENOR) :
 
Severe mountain waves
ENBD SIGMET D03 VALID 191500/191900 ENVN
ENOR NORWAY FIR SEV MTW FCST WI N6950 E01750 - N7120 E02730 - N7040 E03050 - N6800 E01710 - N6950 E01750 SFC/FL450 STNR INTSF=



MET'MAP, your aeronautical weather chart ! - Copyright ORBIFLY December 2007 - Disclaimer

ORBIFLY MET'MAP TEAM :

Programming & Development : Alexandra Zaïnal
Concept & Development : Baudouin d'Aumeries
Co-Development & Prog : Marc-Olivier Méhu
Technical & hardware support : Manuel Goepfert

Contact : metmap@orbifly.com




SOURCES & CREDITS :

   NOAA